Time;durP1;ratioP1;P1;durP2;ratioP2;P2;SDS_P1;SDS_P2;PMS_P1;PMS_P2;Temp;Humidity;BMP_temperature;BMP_pressure;BME280_temperature;BME280_humidity;BME280_pressure;Samples;Min_cycle;Max_cycle;Signal;HPM_P1;HPM_P2
2023/10/05 00:03:44;;;;;;;;;;;;;11.00;99525.00;;;;5052112;28;20041;-66
2023/10/05 00:06:14;;;;;;;7.63;4.70;;;;;10.90;99526.00;;;;5052125;28;20020;-66
2023/10/05 00:08:47;;;;;;;10.27;5.15;;;;;10.90;99525.00;;;;5052017;28;20047;-66
2023/10/05 00:11:23;;;;;;;11.48;5.00;;;;;11.00;99523.00;;;;5051975;28;20505;-66
2023/10/05 00:13:51;;;;;;;12.48;5.65;;;;;11.00;99515.00;;;;5050302;28;20041;-67
2023/10/05 00:16:20;;;;;;;8.75;5.18;;;;;10.90;99520.00;;;;5051015;28;20554;-66
2023/10/05 00:18:51;;;;;;;9.15;5.03;;;;;10.80;99508.00;;;;5050693;28;20053;-66
2023/10/05 00:21:19;;;;;;;11.00;4.80;;;;;10.70;99507.00;;;;5052097;28;20498;-66
2023/10/05 00:23:53;;;;;;;10.95;4.78;;;;;10.60;99513.00;;;;5051787;28;20954;-66
2023/10/05 00:26:20;;;;;;;10.25;4.93;;;;;10.60;99508.00;;;;5052037;28;20572;-66
2023/10/05 00:29:05;;;;;;;7.82;4.72;;;;;10.60;99508.00;;;;5050651;28;20540;-67
2023/10/05 00:31:38;;;;;;;15.93;5.10;;;;;10.60;99503.00;;;;5050763;28;20444;-66
2023/10/05 00:34:09;;;;;;;10.45;4.57;;;;;10.60;99490.00;;;;5055146;28;20468;-66
2023/10/05 00:36:40;;;;;;;8.25;4.90;;;;;10.60;99490.00;;;;5055973;28;20040;-67
2023/10/05 00:39:09;;;;;;;10.00;4.10;;;;;10.60;99489.00;;;;5056217;28;20116;-65
2023/10/05 00:41:36;;;;;;;10.27;4.53;;;;;10.50;99489.00;;;;5055716;28;20441;-66
2023/10/05 00:44:05;;;;;;;9.60;4.68;;;;;10.50;99497.00;;;;5053850;28;20083;-66
2023/10/05 00:46:33;;;;;;;12.05;4.82;;;;;10.40;99505.00;;;;5055714;28;20422;-66
2023/10/05 00:49:03;;;;;;;9.30;4.25;;;;;10.50;99496.00;;;;5054364;28;20091;-66
2023/10/05 00:51:34;;;;;;;6.35;4.13;;;;;10.60;99492.00;;;;5055811;28;20447;-66
2023/10/05 00:54:05;;;;;;;10.40;4.55;;;;;10.60;99488.00;;;;5053906;28;20037;-66
2023/10/05 00:56:35;;;;;;;9.35;5.40;;;;;10.40;99481.00;;;;5054361;28;20055;-66
2023/10/05 00:59:06;;;;;;;8.75;4.47;;;;;10.30;99479.00;;;;5055566;28;20049;-66
2023/10/05 01:04:23;;;;;;;9.82;4.60;;;;;10.20;99478.00;;;;5053771;28;20537;-66
2023/10/05 01:07:06;;;;;;;8.82;4.90;;;;;10.20;99470.00;;;;5055456;28;20055;-66
2023/10/05 01:09:40;;;;;;;11.13;4.65;;;;;10.30;99473.00;;;;5055421;28;20052;-66
2023/10/05 01:12:35;;;;;;;9.15;4.25;;;;;10.30;99475.00;;;;5110034;27;20461;-66
2023/10/05 01:15:05;;;;;;;7.60;4.50;;;;;10.30;99471.00;;;;5108115;28;20134;-65
2023/10/05 01:17:35;;;;;;;9.52;4.80;;;;;10.40;99483.00;;;;5110104;28;20040;-65
2023/10/05 01:20:13;;;;;;;7.70;4.05;;;;;10.40;99491.00;;;;5110356;28;20036;-65
2023/10/05 01:22:40;;;;;;;9.27;4.85;;;;;10.60;99494.00;;;;5110688;28;20032;-65
2023/10/05 01:25:08;;;;;;;10.65;4.75;;;;;10.60;99493.00;;;;5108043;28;20079;-65
2023/10/05 01:27:40;;;;;;;8.52;5.22;;;;;10.60;99494.00;;;;5108388;28;20056;-65
2023/10/05 01:30:09;;;;;;;9.30;4.30;;;;;10.50;99479.00;;;;5108486;28;20051;-65
2023/10/05 01:32:37;;;;;;;9.98;4.97;;;;;10.60;99480.00;;;;5109789;28;20055;-65
2023/10/05 01:35:08;;;;;;;9.43;5.10;;;;;10.70;99464.00;;;;5109238;28;20036;-65
2023/10/05 01:37:46;;;;;;;10.43;4.65;;;;;10.80;99468.00;;;;5109472;28;20416;-65
2023/10/05 01:42:47;;;;;;;10.27;5.25;;;;;10.70;99462.00;;;;5109846;28;20048;-65
2023/10/05 01:45:17;;;;;;;10.15;4.95;;;;;10.50;99464.00;;;;5108870;28;20130;-65
2023/10/05 01:47:44;;;;;;;9.65;5.00;;;;;10.50;99452.00;;;;5108081;28;20649;-65
2023/10/05 01:50:26;;;;;;;9.25;4.93;;;;;10.50;99466.00;;;;5108044;28;20535;-65
2023/10/05 01:53:15;;;;;;;11.93;5.38;;;;;10.40;99461.00;;;;5108214;28;20052;-65
2023/10/05 01:55:44;;;;;;;10.02;5.53;;;;;10.30;99460.00;;;;5107453;28;20047;-66
2023/10/05 01:58:21;;;;;;;8.18;4.75;;;;;10.30;99455.00;;;;5107745;28;20044;-65
2023/10/05 02:00:48;;;;;;;7.68;4.57;;;;;10.40;99458.00;;;;5107817;28;20044;-65
2023/10/05 02:03:17;;;;;;;8.15;4.50;;;;;10.30;99445.00;;;;5107814;28;20051;-66
2023/10/05 02:05:46;;;;;;;10.23;5.43;;;;;10.30;99449.00;;;;5108429;28;20098;-65
2023/10/05 02:08:14;;;;;;;9.52;5.40;;;;;10.30;99447.00;;;;5108972;28;20093;-65
2023/10/05 02:10:46;;;;;;;10.27;4.60;;;;;10.30;99453.00;;;;5090790;28;20043;-65
2023/10/05 02:13:14;;;;;;;11.35;4.75;;;;;10.30;99449.00;;;;5107682;28;20127;-65
2023/10/05 02:15:41;;;;;;;7.82;4.35;;;;;10.40;99457.00;;;;5106652;28;20048;-65
2023/10/05 02:18:26;;;;;;;7.22;4.50;;;;;10.50;99453.00;;;;5107395;28;20044;-65
2023/10/05 02:21:07;;;;;;;8.70;5.05;;;;;10.60;99449.00;;;;5107709;28;20539;-65
2023/10/05 02:23:40;;;;;;;11.00;5.25;;;;;10.60;99449.00;;;;5093994;28;20139;-65
2023/10/05 02:26:23;;;;;;;12.45;4.75;;;;;10.70;99447.00;;;;5095134;28;20074;-65
2023/10/05 02:28:51;;;;;;;8.87;4.73;;;;;10.50;99443.00;;;;5095069;28;20511;-65
2023/10/05 02:31:20;;;;;;;10.95;5.13;;;;;10.30;99430.00;;;;5094936;28;20355;-65
2023/10/05 02:33:47;;;;;;;8.75;5.18;;;;;10.20;99431.00;;;;5094404;28;20044;-65
2023/10/05 02:36:20;;;;;;;10.52;5.00;;;;;10.30;99434.00;;;;5093420;28;20054;-64
2023/10/05 02:38:53;;;;;;;8.23;4.97;;;;;10.30;99425.00;;;;5094800;28;20040;-64
2023/10/05 02:41:25;;;;;;;7.68;4.68;;;;;10.20;99427.00;;;;5093625;28;20126;-65
2023/10/05 02:43:54;;;;;;;9.10;4.93;;;;;10.20;99421.00;;;;5092982;28;20044;-64
2023/10/05 02:46:24;;;;;;;8.88;4.80;;;;;10.10;99413.00;;;;5094750;28;20043;-65
2023/10/05 02:48:50;;;;;;;7.47;4.15;;;;;10.10;99420.00;;;;5093387;28;20050;-65
2023/10/05 02:51:18;;;;;;;12.75;4.53;;;;;10.10;99419.00;;;;5093169;28;20044;-65
2023/10/05 02:53:46;;;;;;;8.85;4.63;;;;;10.00;99425.00;;;;5094002;28;20091;-65
2023/10/05 02:56:20;;;;;;;7.13;4.70;;;;;10.00;99429.00;;;;5093377;28;20531;-65
2023/10/05 02:58:52;;;;;;;7.95;4.80;;;;;10.00;99437.00;;;;5094471;28;20075;-65
2023/10/05 03:01:19;;;;;;;10.13;4.30;;;;;10.00;99439.00;;;;5094386;28;20638;-65
2023/10/05 03:03:46;;;;;;;11.43;4.95;;;;;10.00;99433.00;;;;5092649;28;20420;-65
2023/10/05 03:06:15;;;;;;;13.32;4.70;;;;;10.00;99452.00;;;;5094895;28;20054;-65
2023/10/05 03:08:45;;;;;;;16.92;4.88;;;;;10.00;99440.00;;;;5093125;28;20587;-65
2023/10/05 03:11:12;;;;;;;10.82;4.43;;;;;10.00;99448.00;;;;5092949;28;20071;-65
2023/10/05 03:13:39;;;;;;;8.73;5.13;;;;;10.10;99448.00;;;;5093161;28;20048;-65
2023/10/05 03:16:10;;;;;;;11.20;4.60;;;;;10.20;99461.00;;;;5094176;28;20512;-65
2023/10/05 03:18:42;;;;;;;7.72;4.63;;;;;10.30;99466.00;;;;5076286;28;20072;-65
2023/10/05 03:21:14;;;;;;;10.43;5.32;;;;;10.30;99471.00;;;;5092849;28;20514;-65
2023/10/05 03:23:41;;;;;;;8.07;4.80;;;;;10.30;99461.00;;;;5093423;28;20071;-65
2023/10/05 03:26:10;;;;;;;9.98;4.97;;;;;10.40;99458.00;;;;5075966;28;20051;-65
2023/10/05 03:28:37;;;;;;;9.38;4.82;;;;;10.40;99473.00;;;;5094571;28;20048;-65
2023/10/05 03:31:19;;;;;;;8.52;4.90;;;;;10.50;99477.00;;;;5093098;28;20055;-65
2023/10/05 03:33:51;;;;;;;8.60;3.83;;;;;10.60;99472.00;;;;5091122;28;20512;-65
2023/10/05 03:36:19;;;;;;;10.45;5.70;;;;;10.70;99479.00;;;;5092546;28;20133;-65
2023/10/05 03:38:55;;;;;;;8.43;4.63;;;;;10.70;99486.00;;;;5092537;28;20500;-65
2023/10/05 03:41:28;;;;;;;7.75;4.47;;;;;10.50;99479.00;;;;5092584;28;20090;-65
2023/10/05 03:43:55;;;;;;;8.35;4.57;;;;;10.40;99483.00;;;;5091642;28;20527;-65
2023/10/05 03:46:25;;;;;;;8.15;4.00;;;;;10.40;99482.00;;;;5092117;28;20054;-65
2023/10/05 03:48:59;;;;;;;9.50;5.25;;;;;10.40;99475.00;;;;5093996;28;20047;-65
2023/10/05 03:51:28;;;;;;;;;;;;;10.60;99480.00;;;;5092867;28;20052;-65
2023/10/05 03:53:55;;;;;;;11.80;5.40;;;;;10.60;99468.00;;;;5091446;28;19920;-65
2023/10/05 03:56:23;;;;;;;12.57;6.70;;;;;10.40;99467.00;;;;5092049;28;20525;-65
2023/10/05 03:58:53;;;;;;;10.65;4.82;;;;;10.40;99464.00;;;;5075156;28;20051;-65
2023/10/05 04:01:24;;;;;;;14.00;7.80;;;;;10.40;99464.00;;;;5091971;28;20131;-65
2023/10/05 04:03:51;;;;;;;9.82;6.55;;;;;10.20;99466.00;;;;5091377;28;20085;-65
2023/10/05 04:06:18;;;;;;;12.75;7.15;;;;;10.10;99461.00;;;;5091801;28;20417;-66
2023/10/05 04:08:49;;;;;;;12.23;6.70;;;;;10.00;99461.00;;;;5093094;28;20115;-65
2023/10/05 04:11:17;;;;;;;8.75;5.47;;;;;10.00;99468.00;;;;5092901;28;20093;-65
2023/10/05 04:13:44;;;;;;;9.98;5.43;;;;;9.90;99457.00;;;;5091313;28;20062;-66
2023/10/05 04:16:18;;;;;;;10.98;4.88;;;;;9.90;99465.00;;;;5091786;28;20050;-65
2023/10/05 04:18:47;;;;;;;;;;;;;9.90;99465.00;;;;5092234;28;20044;-66
2023/10/05 04:21:18;;;;;;;9.90;4.45;;;;;9.90;99449.00;;;;5091826;28;19973;-65
2023/10/05 04:23:49;;;;;;;7.75;4.18;;;;;9.90;99443.00;;;;5092433;28;20097;-66
2023/10/05 04:26:20;;;;;;;9.10;5.28;;;;;9.90;99445.00;;;;5092801;28;20047;-66
2023/10/05 04:28:54;;;;;;;11.50;4.38;;;;;9.90;99452.00;;;;5092746;28;20382;-65
2023/10/05 04:31:23;;;;;;;8.55;4.63;;;;;9.90;99453.00;;;;5092810;28;20386;-65
2023/10/05 04:33:54;;;;;;;7.95;4.30;;;;;10.00;99443.00;;;;5092461;28;20048;-65
2023/10/05 04:36:22;;;;;;;9.70;5.47;;;;;10.10;99441.00;;;;5092850;28;20105;-65
2023/10/05 04:38:51;;;;;;;11.10;5.07;;;;;10.20;99444.00;;;;5092838;28;20118;-65
2023/10/05 04:41:19;;;;;;;8.35;4.57;;;;;10.20;99468.00;;;;5092826;28;20119;-66
2023/10/05 04:43:48;;;;;;;11.82;5.00;;;;;10.30;99455.00;;;;5091287;28;20445;-66
2023/10/05 04:46:18;;;;;;;10.65;5.28;;;;;10.20;99446.00;;;;5092669;28;20050;-65
2023/10/05 04:48:55;;;;;;;11.00;5.07;;;;;10.20;99452.00;;;;5092739;28;20048;-65
2023/10/05 04:51:23;;;;;;;11.57;4.88;;;;;10.10;99439.00;;;;5092674;28;20055;-65
2023/10/05 04:53:54;;;;;;;7.55;4.18;;;;;10.10;99436.00;;;;5092277;28;20048;-66
2023/10/05 04:56:35;;;;;;;8.48;4.53;;;;;10.00;99440.00;;;;5092727;28;20135;-66
2023/10/05 05:01:56;;;;;;;12.35;4.80;;;;;10.00;99443.00;;;;5092944;28;20044;-66
2023/10/05 05:07:10;;;;;;;8.38;4.55;;;;;10.10;99440.00;;;;5092312;28;20056;-65
2023/10/05 05:09:39;;;;;;;8.38;4.32;;;;;10.10;99434.00;;;;5092322;28;20052;-66
2023/10/05 05:12:09;;;;;;;7.50;4.13;;;;;10.00;99442.00;;;;5092227;28;20522;-65
2023/10/05 05:14:41;;;;;;;12.30;5.85;;;;;10.10;99434.00;;;;5091590;28;20126;-65
2023/10/05 05:17:12;;;;;;;11.18;4.85;;;;;10.00;99442.00;;;;5092122;28;20082;-65
2023/10/05 05:19:39;;;;;;;11.02;5.32;;;;;10.00;99449.00;;;;5090798;28;20052;-65
2023/10/05 05:22:07;;;;;;;10.32;4.72;;;;;10.10;99460.00;;;;5092188;28;20043;-65
2023/10/05 05:24:34;;;;;;;11.50;4.95;;;;;10.10;99464.00;;;;5091527;28;20412;-65
2023/10/05 05:27:11;;;;;;;9.85;4.63;;;;;10.20;99472.00;;;;5091875;28;20468;-65
2023/10/05 05:29:38;;;;;;;11.63;5.93;;;;;10.30;99473.00;;;;5091013;28;20131;-65
2023/10/05 05:32:09;;;;;;;11.18;5.50;;;;;10.40;99478.00;;;;5091996;28;20094;-65
2023/10/05 05:34:36;;;;;;;11.32;4.88;;;;;10.30;99468.00;;;;5091441;28;20121;-65
2023/10/05 05:37:07;;;;;;;11.18;4.57;;;;;10.40;99470.00;;;;5090831;28;20052;-65
2023/10/05 05:39:40;;;;;;;9.80;4.90;;;;;10.30;99466.00;;;;5092051;28;20075;-65
2023/10/05 05:42:15;;;;;;;11.27;6.32;;;;;10.30;99472.00;;;;5090750;28;20048;-65
2023/10/05 05:44:41;;;;;;;11.60;6.05;;;;;10.30;99479.00;;;;5091229;28;20048;-65
2023/10/05 05:47:14;;;;;;;10.10;5.32;;;;;10.20;99483.00;;;;5090595;28;20056;-65
2023/10/05 05:49:43;;;;;;;10.15;5.28;;;;;10.20;99471.00;;;;5092122;28;20047;-65
2023/10/05 05:52:10;;;;;;;9.50;5.72;;;;;10.30;99472.00;;;;5091760;28;20123;-65
2023/10/05 05:54:37;;;;;;;9.38;5.68;;;;;10.30;99471.00;;;;5091226;28;20493;-66
2023/10/05 05:57:08;;;;;;;9.48;5.45;;;;;10.30;99475.00;;;;5092109;28;20063;-65
2023/10/05 05:59:35;;;;;;;9.75;6.10;;;;;10.30;99486.00;;;;5094471;28;20497;-67
2023/10/05 06:02:08;;;;;;;15.88;6.75;;;;;10.40;99484.00;;;;5096083;28;20089;-67
2023/10/05 06:04:35;;;;;;;8.32;5.68;;;;;10.40;99485.00;;;;5095834;28;20044;-66
2023/10/05 06:07:11;;;;;;;8.40;5.05;;;;;10.50;99488.00;;;;5095675;28;20051;-67
2023/10/05 06:09:43;;;;;;;9.45;5.28;;;;;10.50;99488.00;;;;5095549;28;20044;-66
2023/10/05 06:12:16;;;;;;;9.93;5.65;;;;;10.50;99484.00;;;;5095404;28;20044;-67
2023/10/05 06:14:42;;;;;;;13.57;6.10;;;;;10.50;99489.00;;;;5094876;28;20119;-67
2023/10/05 06:17:10;;;;;;;17.77;6.45;;;;;10.60;99485.00;;;;5095124;28;20135;-67
2023/10/05 06:19:37;;;;;;;11.07;5.43;;;;;10.70;99479.00;;;;5095234;28;20083;-67
2023/10/05 06:22:06;;;;;;;13.00;6.03;;;;;10.80;99476.00;;;;5094064;28;20036;-67
2023/10/05 06:24:38;;;;;;;11.60;6.20;;;;;10.80;99480.00;;;;5094616;28;20055;-66
2023/10/05 06:27:05;;;;;;;14.00;6.15;;;;;10.90;99476.00;;;;5093913;28;20048;-67
2023/10/05 06:29:33;;;;;;;10.73;6.05;;;;;11.00;99484.00;;;;5095038;28;20406;-67
2023/10/05 06:32:00;;;;;;;13.25;6.40;;;;;11.10;99490.00;;;;5093833;28;20062;-67
2023/10/05 06:34:27;;;;;;;15.63;6.70;;;;;11.10;99486.00;;;;5094258;28;20069;-67
2023/10/05 06:36:54;;;;;;;13.90;7.07;;;;;11.10;99487.00;;;;5094932;28;20097;-67
2023/10/05 06:39:27;;;;;;;11.38;5.90;;;;;11.20;99488.00;;;;5093736;28;20055;-67
2023/10/05 06:41:53;;;;;;;14.77;7.05;;;;;11.30;99474.00;;;;5094908;28;20432;-67
2023/10/05 06:44:24;;;;;;;12.95;6.50;;;;;11.40;99485.00;;;;5092888;28;20055;-67
2023/10/05 06:46:53;;;;;;;14.18;6.88;;;;;11.40;99483.00;;;;5094673;28;20040;-64
2023/10/05 06:49:22;;;;;;;12.38;6.07;;;;;11.30;99483.00;;;;5094822;28;20044;-67
2023/10/05 06:51:49;;;;;;;11.18;6.13;;;;;11.20;99484.00;;;;5093404;28;20409;-64
2023/10/05 06:54:17;;;;;;;12.43;6.47;;;;;11.30;99486.00;;;;5094090;28;20062;-65
2023/10/05 06:56:49;;;;;;;12.23;6.95;;;;;11.40;99494.00;;;;5094458;28;20102;-65
2023/10/05 06:59:16;;;;;;;13.63;6.32;;;;;11.50;99504.00;;;;5093336;28;20044;-65
2023/10/05 07:01:42;;;;;;;15.10;6.20;;;;;11.40;99507.00;;;;5093376;28;20086;-64
2023/10/05 07:04:10;;;;;;;14.20;6.60;;;;;11.50;99522.00;;;;5093776;28;20086;-64
2023/10/05 07:06:36;;;;;;;12.00;6.88;;;;;11.70;99523.00;;;;5094414;28;20479;-65
2023/10/05 07:09:03;;;;;;;14.27;6.78;;;;;11.80;99512.00;;;;5092963;28;20119;-65
2023/10/05 07:11:30;;;;;;;14.07;7.45;;;;;11.90;99520.00;;;;5092959;28;20044;-65
2023/10/05 07:13:57;;;;;;;14.30;6.75;;;;;11.90;99522.00;;;;5092461;28;20055;-66
2023/10/05 07:16:24;;;;;;;13.60;6.72;;;;;12.00;99516.00;;;;5092800;28;20411;-65
2023/10/05 07:18:51;;;;;;;16.38;6.47;;;;;12.10;99523.00;;;;5094253;28;20048;-65
2023/10/05 07:21:18;;;;;;;14.38;6.63;;;;;12.10;99524.00;;;;5094101;28;20127;-65
2023/10/05 07:23:44;;;;;;;12.18;6.78;;;;;12.20;99522.00;;;;5093374;28;20427;-66
2023/10/05 07:26:12;;;;;;;13.13;6.43;;;;;12.30;99535.00;;;;5094053;28;20563;-65
2023/10/05 07:28:40;;;;;;;10.70;6.63;;;;;12.40;99532.00;;;;5094041;28;20043;-65
2023/10/05 07:31:07;;;;;;;11.02;6.22;;;;;12.40;99528.00;;;;5093811;28;20044;-66
2023/10/05 07:33:33;;;;;;;13.23;6.47;;;;;12.50;99531.00;;;;5093210;28;20112;-66
2023/10/05 07:36:02;;;;;;;16.58;7.00;;;;;12.50;99534.00;;;;5093691;28;20488;-65
2023/10/05 07:38:29;;;;;;;12.27;6.30;;;;;12.60;99534.00;;;;5093838;28;20056;-65
2023/10/05 07:40:56;;;;;;;12.18;6.57;;;;;12.70;99528.00;;;;5093745;28;20085;-65
2023/10/05 07:43:23;;;;;;;11.88;6.57;;;;;12.80;99530.00;;;;5092339;28;20086;-66
2023/10/05 07:45:50;;;;;;;15.13;7.20;;;;;12.90;99529.00;;;;5093380;28;20044;-66
2023/10/05 07:48:17;;;;;;;15.00;6.78;;;;;13.00;99533.00;;;;5093627;28;20409;-65
2023/10/05 07:50:44;;;;;;;13.07;6.90;;;;;13.10;99539.00;;;;5092323;28;20051;-65
2023/10/05 07:53:10;;;;;;;10.40;6.32;;;;;13.20;99550.00;;;;5093299;28;20396;-65
2023/10/05 07:55:37;;;;;;;15.50;6.28;;;;;13.20;99554.00;;;;5092941;28;20052;-65
2023/10/05 07:58:05;;;;;;;13.10;7.00;;;;;13.10;99561.00;;;;5093355;28;20048;-65
2023/10/05 08:00:33;;;;;;;13.27;6.90;;;;;13.20;99555.00;;;;5093301;28;20518;-66
2023/10/05 08:03:00;;;;;;;12.73;6.95;;;;;13.40;99553.00;;;;5093600;28;20036;-66
2023/10/05 08:05:27;;;;;;;18.30;6.60;;;;;13.60;99553.00;;;;5092727;28;20559;-66
2023/10/05 08:07:54;;;;;;;17.67;6.95;;;;;13.80;99553.00;;;;5091987;28;20047;-67
2023/10/05 08:10:21;;;;;;;10.60;5.65;;;;;14.00;99555.00;;;;5092075;28;20084;-66
2023/10/05 08:12:50;;;;;;;12.45;6.03;;;;;14.00;99554.00;;;;5093113;28;20040;-67
2023/10/05 08:15:18;;;;;;;10.20;5.88;;;;;14.00;99546.00;;;;5092768;28;20389;-67
2023/10/05 08:17:48;;;;;;;14.88;6.57;;;;;13.90;99545.00;;;;5093096;28;20115;-67
2023/10/05 08:20:17;;;;;;;12.60;5.50;;;;;13.90;99556.00;;;;5092789;28;20123;-67
2023/10/05 08:22:50;;;;;;;17.35;6.75;;;;;14.00;99549.00;;;;5093259;28;20099;-64
2023/10/05 08:25:16;;;;;;;13.98;5.93;;;;;14.30;99555.00;;;;5092413;28;20516;-66
2023/10/05 08:27:43;;;;;;;13.95;6.38;;;;;14.50;99563.00;;;;5093052;28;20117;-65
2023/10/05 08:30:13;;;;;;;17.88;7.53;;;;;14.60;99564.00;;;;5093263;28;20127;-65
2023/10/05 08:32:40;;;;;;;21.30;8.90;;;;;14.70;99565.00;;;;5093942;28;20036;-65
2023/10/05 08:35:13;;;;;;;10.60;5.45;;;;;14.80;99565.00;;;;5099003;28;20097;-65
2023/10/05 08:37:59;;;;;;;13.52;5.03;;;;;14.90;99569.00;;;;5105629;28;20047;-65
2023/10/05 08:43:13;;;;;;;12.57;5.03;;;;;15.30;99561.00;;;;5104108;28;20063;-66
2023/10/05 08:45:51;;;;;;;13.90;5.18;;;;;15.50;99572.00;;;;5102498;28;20043;-66
2023/10/05 08:48:28;;;;;;;13.85;5.47;;;;;15.60;99567.00;;;;5101960;28;20050;-66
2023/10/05 08:51:05;;;;;;;14.63;4.80;;;;;15.80;99573.00;;;;5103382;28;20051;-66
2023/10/05 08:53:32;;;;;;;14.55;4.63;;;;;15.90;99569.00;;;;5104067;28;20103;-66
2023/10/05 08:55:59;;;;;;;9.63;4.28;;;;;16.00;99580.00;;;;5102676;28;20040;-66
2023/10/05 08:58:28;;;;;;;9.43;4.60;;;;;16.10;99586.00;;;;5095653;28;20046;-66
2023/10/05 09:01:03;;;;;;;13.65;4.55;;;;;16.00;99591.00;;;;5092511;28;20044;-66
2023/10/05 09:03:35;;;;;;;11.23;4.93;;;;;16.10;99600.00;;;;5091718;28;20090;-66
2023/10/05 09:06:15;;;;;;;11.13;4.80;;;;;16.20;99596.00;;;;5092232;28;20054;-66
2023/10/05 09:11:33;;;;;;;9.07;4.72;;;;;16.40;99597.00;;;;5092023;28;20122;-65
2023/10/05 09:14:13;;;;;;;13.88;5.10;;;;;16.50;99601.00;;;;5091379;28;20044;-67
2023/10/05 09:16:41;;;;;;;9.70;5.03;;;;;16.60;99587.00;;;;5092474;28;20063;-67
2023/10/05 09:19:15;;;;;;;11.55;5.82;;;;;16.70;99581.00;;;;5092465;28;20079;-66
2023/10/05 09:21:43;;;;;;;;;;;;;16.90;99581.00;;;;5092542;28;20048;-66
2023/10/05 09:24:20;;;;;;;15.88;5.70;;;;;17.10;99583.00;;;;5091475;28;20027;-66
2023/10/05 09:27:09;;;;;;;8.43;4.72;;;;;17.10;99587.00;;;;5092032;28;20054;-66
2023/10/05 09:29:36;;;;;;;13.10;4.50;;;;;17.10;99598.00;;;;5092397;28;20130;-66
2023/10/05 09:32:08;;;;;;;10.57;4.32;;;;;17.20;99596.00;;;;5092329;28;20048;-66
2023/10/05 09:34:49;;;;;;;11.52;4.75;;;;;17.20;99607.00;;;;5096647;28;20044;-66
2023/10/05 09:37:17;;;;;;;9.88;4.43;;;;;17.20;99602.00;;;;5096126;28;20055;-66
2023/10/05 09:39:54;;;;;;;14.82;5.00;;;;;17.20;99595.00;;;;5096364;28;20441;-65
2023/10/05 09:42:25;;;;;;;15.00;5.70;;;;;17.20;99599.00;;;;5096383;28;20444;-66
2023/10/05 09:44:59;;;;;;;13.38;4.47;;;;;17.30;99598.00;;;;5094423;28;20044;-66
2023/10/05 09:47:32;;;;;;;16.40;5.70;;;;;17.40;99601.00;;;;5077859;28;20048;-66
2023/10/05 09:50:00;;;;;;;;;;;;;17.40;99598.00;;;;5095429;28;20055;-66
2023/10/05 09:52:37;;;;;;;14.65;4.50;;;;;17.50;99598.00;;;;5096283;28;19923;-66
2023/10/05 09:55:07;;;;;;;9.02;4.40;;;;;17.50;99596.00;;;;5095731;28;20052;-66
2023/10/05 09:57:51;;;;;;;11.82;4.28;;;;;17.70;99601.00;;;;5095896;28;20118;-66
2023/10/05 10:03:22;;;;;;;10.48;4.65;;;;;18.00;99604.00;;;;5032981;28;20509;-65
2023/10/05 10:06:07;;;;;;;10.57;4.78;;;;;18.10;99610.00;;;;5078787;28;20052;-66
2023/10/05 10:08:50;;;;;;;6.28;3.72;;;;;18.10;99614.00;;;;5094327;28;20451;-66
2023/10/05 10:11:19;;;;;;;10.00;4.43;;;;;18.10;99622.00;;;;5095435;28;20048;-66
2023/10/05 10:14:07;;;;;;;9.88;4.10;;;;;18.10;99619.00;;;;5094619;28;20055;-66
2023/10/05 10:16:41;;;;;;;7.80;3.60;;;;;18.20;99617.00;;;;5095182;28;20048;-66
2023/10/05 10:19:22;;;;;;;10.20;3.72;;;;;18.30;99626.00;;;;5094098;28;20075;-66
2023/10/05 10:22:00;;;;;;;12.65;3.78;;;;;18.40;99613.00;;;;5095294;28;20063;-66
2023/10/05 10:24:29;;;;;;;8.40;3.67;;;;;18.50;99598.00;;;;5094611;28;20089;-67
2023/10/05 10:27:07;;;;;;;8.30;3.25;;;;;18.50;99600.00;;;;5095061;28;20040;-67
2023/10/05 10:29:47;;;;;;;8.65;4.03;;;;;18.50;99613.00;;;;5095014;28;20055;-67
2023/10/05 10:32:18;;;;;;;10.48;3.60;;;;;18.50;99621.00;;;;5093831;28;20466;-67
2023/10/05 10:35:06;;;;;;;13.52;3.60;;;;;18.50;99623.00;;;;5094459;28;20040;-66
2023/10/05 10:37:44;;;;;;;8.90;4.10;;;;;18.50;99637.00;;;;5094855;28;20063;-66
2023/10/05 10:43:06;;;;;;;8.43;4.10;;;;;18.70;99614.00;;;;5093204;28;20048;-66
2023/10/05 10:45:41;;;;;;;13.50;5.20;;;;;18.70;99613.00;;;;5094463;28;20044;-67
2023/10/05 10:48:29;;;;;;;8.98;3.90;;;;;18.70;99616.00;;;;5094652;28;20051;-66
2023/10/05 10:51:00;;;;;;;9.10;4.50;;;;;18.60;99615.00;;;;5094757;28;20052;-66
2023/10/05 10:53:31;;;;;;;11.70;5.78;;;;;18.60;99611.00;;;;5094164;28;20050;-66
2023/10/05 10:56:04;;;;;;;11.60;4.78;;;;;18.50;99610.00;;;;5094521;28;20054;-66
2023/10/05 10:58:34;;;;;;;11.18;4.40;;;;;18.30;99620.00;;;;5094500;28;20070;-66
2023/10/05 11:01:45;;;;;;;8.57;4.20;;;;;18.20;99608.00;;;;5093245;28;20071;-67
2023/10/05 11:03:55;;;;;;;11.00;4.18;;;;;18.10;99594.00;;;;5085589;28;20055;-66
2023/10/05 11:06:26;;;;;;;15.00;4.38;;;;;18.10;99593.00;;;;5094341;28;20411;-66
2023/10/05 11:08:52;;;;;;;10.27;4.20;;;;;18.10;99592.00;;;;5094343;28;20098;-66
2023/10/05 11:11:19;;;;;;;10.25;4.20;;;;;18.10;99590.00;;;;5094167;28;20599;-66
2023/10/05 11:14:05;;;;;;;10.20;4.15;;;;;18.20;99594.00;;;;5093676;28;20044;-66
2023/10/05 11:16:43;;;;;;;13.27;4.40;;;;;18.30;99596.00;;;;5094140;28;20122;-66
2023/10/05 11:19:13;;;;;;;13.07;4.28;;;;;18.40;99584.00;;;;5094004;28;20063;-66
2023/10/05 11:22:04;;;;;;;8.48;3.70;;;;;18.60;99586.00;;;;5094053;28;20052;-66
2023/10/05 11:24:31;;;;;;;;;;;;;18.60;99595.00;;;;5094141;28;20584;-66
2023/10/05 11:29:28;;;;;;;10.07;4.88;;;;;18.60;99584.00;;;;5093817;28;20048;-66
2023/10/05 11:32:12;;;;;;;9.85;3.97;;;;;18.70;99577.00;;;;5093955;28;20078;-66
2023/10/05 11:35:04;;;;;;;12.98;3.63;;;;;18.70;99571.00;;;;5093172;28;20055;-66
2023/10/05 11:37:58;;;;;;;9.25;3.63;;;;;18.80;99571.00;;;;5092420;28;20051;-66
2023/10/05 11:40:47;;;;;;;8.20;3.88;;;;;18.70;99564.00;;;;5093894;28;20485;-67
2023/10/05 11:43:15;;;;;;;9.30;3.42;;;;;18.50;99569.00;;;;5093726;28;20040;-66
2023/10/05 11:46:17;;;;;;;14.02;3.92;;;;;18.40;99570.00;;;;5093258;28;20093;-66
2023/10/05 11:48:51;;;;;;;10.50;3.40;;;;;18.40;99569.00;;;;5061066;28;20079;-66
2023/10/05 11:51:26;;;;;;;12.43;3.90;;;;;18.30;99565.00;;;;5093597;28;20408;-66
2023/10/05 11:53:57;;;;;;;10.88;4.95;;;;;18.10;99547.00;;;;5092827;28;20078;-66
2023/10/05 11:56:30;;;;;;;10.98;3.88;;;;;18.10;99563.00;;;;5092622;28;20086;-66
2023/10/05 11:59:00;;;;;;;;;;;;;18.10;99571.00;;;;5093781;28;20048;-66
2023/10/05 12:01:27;;;;;;;7.85;3.72;;;;;17.90;99564.00;;;;5093553;28;19926;-67
2023/10/05 12:03:55;;;;;;;7.90;3.65;;;;;17.90;99555.00;;;;5092640;28;20044;-67
2023/10/05 12:06:25;;;;;;;7.43;3.47;;;;;17.90;99543.00;;;;5092114;28;20465;-67
2023/10/05 12:09:09;;;;;;;10.30;3.42;;;;;17.80;99538.00;;;;5093296;28;20070;-66
2023/10/05 12:11:38;;;;;;;11.60;3.17;;;;;17.80;99564.00;;;;5093153;28;20040;-66
2023/10/05 12:14:05;;;;;;;10.00;3.80;;;;;17.70;99574.00;;;;5092545;28;20040;-66
2023/10/05 12:16:38;;;;;;;7.72;3.55;;;;;17.70;99584.00;;;;5091968;28;20097;-66
2023/10/05 12:19:13;;;;;;;7.35;3.17;;;;;17.60;99585.00;;;;5093409;28;20055;-66
2023/10/05 12:21:44;;;;;;;8.25;3.63;;;;;17.60;99594.00;;;;5093183;28;20050;-66
2023/10/05 12:24:11;;;;;;;5.43;3.55;;;;;17.60;99596.00;;;;5092419;28;20044;-66
2023/10/05 12:26:39;;;;;;;8.32;3.42;;;;;17.60;99591.00;;;;5092752;28;20294;-66
2023/10/05 12:29:12;;;;;;;7.85;3.38;;;;;17.60;99596.00;;;;5092875;28;20469;-66
2023/10/05 12:31:44;;;;;;;8.25;3.55;;;;;17.70;99578.00;;;;5091696;28;20043;-65
2023/10/05 12:34:14;;;;;;;10.63;3.73;;;;;17.70;99583.00;;;;5091993;28;20079;-65
2023/10/05 12:36:55;;;;;;;11.02;3.75;;;;;17.70;99596.00;;;;5092816;28;20050;-65
2023/10/05 12:39:26;;;;;;;14.05;3.80;;;;;17.70;99601.00;;;;5091435;28;20122;-65
2023/10/05 12:41:54;;;;;;;8.90;3.20;;;;;17.80;99588.00;;;;5092711;28;20493;-66
2023/10/05 12:44:22;;;;;;;7.13;3.13;;;;;17.80;99599.00;;;;5090683;28;20044;-67
2023/10/05 12:46:50;;;;;;;7.72;3.38;;;;;17.80;99580.00;;;;5092374;28;20044;-67
2023/10/05 12:49:17;;;;;;;11.13;3.90;;;;;17.80;99582.00;;;;5092444;28;20051;-67
2023/10/05 12:51:45;;;;;;;10.45;3.78;;;;;17.90;99587.00;;;;5092519;28;20119;-67
2023/10/05 12:54:34;;;;;;;9.75;3.30;;;;;17.90;99599.00;;;;5091804;28;20048;-67
2023/10/05 12:57:10;;;;;;;10.02;4.28;;;;;17.90;99590.00;;;;5092124;28;20054;-67
2023/10/05 12:59:42;;;;;;;10.98;3.30;;;;;18.00;99593.00;;;;5092462;28;20119;-67
2023/10/05 13:02:18;;;;;;;5.68;2.97;;;;;17.90;99585.00;;;;5092214;28;20075;-67